sensor_id;sensor_type;location;lat;lon;timestamp;temperature;humidity
4647;DHT22;2336;47.822;7.564;2022-07-25T00:00:03;21.40;99.90
4647;DHT22;2336;47.822;7.564;2022-07-25T00:02:32;21.30;99.90
4647;DHT22;2336;47.822;7.564;2022-07-25T00:04:58;21.30;99.90
4647;DHT22;2336;47.822;7.564;2022-07-25T00:07:25;21.30;99.90
4647;DHT22;2336;47.822;7.564;2022-07-25T00:09:52;21.20;99.90
4647;DHT22;2336;47.822;7.564;2022-07-25T00:12:19;21.10;99.90
4647;DHT22;2336;47.822;7.564;2022-07-25T00:14:46;21.10;99.90
4647;DHT22;2336;47.822;7.564;2022-07-25T00:17:13;21.10;99.90
4647;DHT22;2336;47.822;7.564;2022-07-25T00:19:41;21.10;99.90
4647;DHT22;2336;47.822;7.564;2022-07-25T00:22:08;21.10;99.90
4647;DHT22;2336;47.822;7.564;2022-07-25T00:24:35;21.10;99.90
4647;DHT22;2336;47.822;7.564;2022-07-25T00:27:01;21.10;99.90
4647;DHT22;2336;47.822;7.564;2022-07-25T00:29:28;21.10;99.90
4647;DHT22;2336;47.822;7.564;2022-07-25T00:31:55;21.10;99.90
4647;DHT22;2336;47.822;7.564;2022-07-25T00:34:22;21.10;99.90
4647;DHT22;2336;47.822;7.564;2022-07-25T00:36:50;21.10;99.90
4647;DHT22;2336;47.822;7.564;2022-07-25T00:39:17;21.10;99.90
4647;DHT22;2336;47.822;7.564;2022-07-25T00:41:43;21.10;99.90
4647;DHT22;2336;47.822;7.564;2022-07-25T00:44:21;21.10;99.90
4647;DHT22;2336;47.822;7.564;2022-07-25T00:46:49;21.10;99.90
4647;DHT22;2336;47.822;7.564;2022-07-25T00:49:15;21.00;99.90
4647;DHT22;2336;47.822;7.564;2022-07-25T00:51:42;21.00;99.90
4647;DHT22;2336;47.822;7.564;2022-07-25T00:54:11;21.00;99.90
4647;DHT22;2336;47.822;7.564;2022-07-25T00:56:37;21.00;99.90
4647;DHT22;2336;47.822;7.564;2022-07-25T00:59:04;21.10;99.90
4647;DHT22;2336;47.822;7.564;2022-07-25T01:01:31;21.10;99.90
4647;DHT22;2336;47.822;7.564;2022-07-25T01:03:58;21.00;99.90
4647;DHT22;2336;47.822;7.564;2022-07-25T01:06:25;20.90;99.90
4647;DHT22;2336;47.822;7.564;2022-07-25T01:08:53;20.90;99.90
4647;DHT22;2336;47.822;7.564;2022-07-25T01:11:22;20.80;99.90
4647;DHT22;2336;47.822;7.564;2022-07-25T01:13:49;20.80;99.90
4647;DHT22;2336;47.822;7.564;2022-07-25T01:16:16;20.70;99.90
4647;DHT22;2336;47.822;7.564;2022-07-25T01:18:43;20.70;99.90
4647;DHT22;2336;47.822;7.564;2022-07-25T01:21:11;20.70;99.90
4647;DHT22;2336;47.822;7.564;2022-07-25T01:23:39;20.70;99.90
4647;DHT22;2336;47.822;7.564;2022-07-25T01:26:05;20.80;99.90
4647;DHT22;2336;47.822;7.564;2022-07-25T01:28:32;20.70;99.90
4647;DHT22;2336;47.822;7.564;2022-07-25T01:30:59;20.70;99.90
4647;DHT22;2336;47.822;7.564;2022-07-25T01:33:26;20.70;99.90
4647;DHT22;2336;47.822;7.564;2022-07-25T01:35:52;20.70;99.90
4647;DHT22;2336;47.822;7.564;2022-07-25T01:38:20;20.70;99.90
4647;DHT22;2336;47.822;7.564;2022-07-25T01:40:47;20.60;99.90
4647;DHT22;2336;47.822;7.564;2022-07-25T01:43:14;20.60;99.90
4647;DHT22;2336;47.822;7.564;2022-07-25T01:45:41;20.60;99.90
4647;DHT22;2336;47.822;7.564;2022-07-25T01:48:07;20.70;99.90
4647;DHT22;2336;47.822;7.564;2022-07-25T01:50:34;20.80;99.90
4647;DHT22;2336;47.822;7.564;2022-07-25T01:53:01;20.90;99.90
4647;DHT22;2336;47.822;7.564;2022-07-25T01:55:29;20.90;99.90
4647;DHT22;2336;47.822;7.564;2022-07-25T01:57:55;21.00;99.90
4647;DHT22;2336;47.822;7.564;2022-07-25T02:00:22;21.00;99.90
4647;DHT22;2336;47.822;7.564;2022-07-25T02:02:49;21.00;99.90
4647;DHT22;2336;47.822;7.564;2022-07-25T02:05:36;21.00;99.90
4647;DHT22;2336;47.822;7.564;2022-07-25T02:08:03;21.10;99.90
4647;DHT22;2336;47.822;7.564;2022-07-25T02:10:31;21.00;99.90
4647;DHT22;2336;47.822;7.564;2022-07-25T02:12:59;21.00;99.90
4647;DHT22;2336;47.822;7.564;2022-07-25T02:15:26;20.90;99.90
4647;DHT22;2336;47.822;7.564;2022-07-25T02:17:53;20.90;99.90
4647;DHT22;2336;47.822;7.564;2022-07-25T02:20:19;20.80;99.90
4647;DHT22;2336;47.822;7.564;2022-07-25T02:22:46;20.80;99.90
4647;DHT22;2336;47.822;7.564;2022-07-25T02:25:13;20.80;99.90
4647;DHT22;2336;47.822;7.564;2022-07-25T02:27:41;20.80;99.90
4647;DHT22;2336;47.822;7.564;2022-07-25T02:30:08;20.80;99.90
4647;DHT22;2336;47.822;7.564;2022-07-25T02:32:35;20.80;99.90
4647;DHT22;2336;47.822;7.564;2022-07-25T02:35:02;20.90;99.90
4647;DHT22;2336;47.822;7.564;2022-07-25T02:37:29;20.80;99.90
4647;DHT22;2336;47.822;7.564;2022-07-25T02:39:56;20.80;99.90
4647;DHT22;2336;47.822;7.564;2022-07-25T02:42:22;20.70;99.90
4647;DHT22;2336;47.822;7.564;2022-07-25T02:44:51;20.80;99.90
4647;DHT22;2336;47.822;7.564;2022-07-25T02:47:18;20.80;99.90
4647;DHT22;2336;47.822;7.564;2022-07-25T02:49:44;20.80;99.90
4647;DHT22;2336;47.822;7.564;2022-07-25T02:52:11;20.80;99.90
4647;DHT22;2336;47.822;7.564;2022-07-25T02:54:38;20.80;99.90
4647;DHT22;2336;47.822;7.564;2022-07-25T02:57:04;20.80;99.90
4647;DHT22;2336;47.822;7.564;2022-07-25T02:59:31;20.70;99.90
4647;DHT22;2336;47.822;7.564;2022-07-25T03:01:59;20.70;99.90
4647;DHT22;2336;47.822;7.564;2022-07-25T03:04:26;20.70;99.90
4647;DHT22;2336;47.822;7.564;2022-07-25T03:06:53;20.70;99.90
4647;DHT22;2336;47.822;7.564;2022-07-25T03:09:19;20.70;99.90
4647;DHT22;2336;47.822;7.564;2022-07-25T03:11:46;20.70;99.90
4647;DHT22;2336;47.822;7.564;2022-07-25T03:14:14;20.60;99.90
4647;DHT22;2336;47.822;7.564;2022-07-25T03:16:41;20.60;99.90
4647;DHT22;2336;47.822;7.564;2022-07-25T03:19:09;20.60;99.90
4647;DHT22;2336;47.822;7.564;2022-07-25T03:21:37;20.60;99.90
4647;DHT22;2336;47.822;7.564;2022-07-25T03:24:04;20.50;99.90
4647;DHT22;2336;47.822;7.564;2022-07-25T03:26:31;20.50;99.90
4647;DHT22;2336;47.822;7.564;2022-07-25T03:28:58;20.40;99.90
4647;DHT22;2336;47.822;7.564;2022-07-25T03:31:25;20.30;99.90
4647;DHT22;2336;47.822;7.564;2022-07-25T03:33:52;20.30;99.90
4647;DHT22;2336;47.822;7.564;2022-07-25T03:36:20;20.30;99.90
4647;DHT22;2336;47.822;7.564;2022-07-25T03:38:47;20.20;99.90
4647;DHT22;2336;47.822;7.564;2022-07-25T03:41:14;20.20;99.90
4647;DHT22;2336;47.822;7.564;2022-07-25T03:43:41;20.30;99.90
4647;DHT22;2336;47.822;7.564;2022-07-25T03:46:07;20.30;99.90
4647;DHT22;2336;47.822;7.564;2022-07-25T03:48:34;20.30;99.90
4647;DHT22;2336;47.822;7.564;2022-07-25T03:51:01;20.20;99.90
4647;DHT22;2336;47.822;7.564;2022-07-25T03:53:29;20.20;99.90
4647;DHT22;2336;47.822;7.564;2022-07-25T03:55:55;20.20;99.90
4647;DHT22;2336;47.822;7.564;2022-07-25T03:58:22;20.20;99.90
4647;DHT22;2336;47.822;7.564;2022-07-25T04:00:49;20.20;99.90
4647;DHT22;2336;47.822;7.564;2022-07-25T04:03:15;20.20;99.90
4647;DHT22;2336;47.822;7.564;2022-07-25T04:05:42;20.20;99.90
4647;DHT22;2336;47.822;7.564;2022-07-25T04:08:09;20.10;99.90
4647;DHT22;2336;47.822;7.564;2022-07-25T04:10:37;20.00;99.90
4647;DHT22;2336;47.822;7.564;2022-07-25T04:13:04;20.00;99.90
4647;DHT22;2336;47.822;7.564;2022-07-25T04:15:30;19.90;99.90
4647;DHT22;2336;47.822;7.564;2022-07-25T04:17:57;19.80;99.90
4647;DHT22;2336;47.822;7.564;2022-07-25T04:20:24;19.70;99.90
4647;DHT22;2336;47.822;7.564;2022-07-25T04:22:50;19.80;99.90
4647;DHT22;2336;47.822;7.564;2022-07-25T04:25:17;19.80;99.90
4647;DHT22;2336;47.822;7.564;2022-07-25T04:27:45;19.90;99.90
4647;DHT22;2336;47.822;7.564;2022-07-25T04:30:12;20.00;99.90
4647;DHT22;2336;47.822;7.564;2022-07-25T04:32:39;20.00;99.90
4647;DHT22;2336;47.822;7.564;2022-07-25T04:35:07;20.00;99.90
4647;DHT22;2336;47.822;7.564;2022-07-25T04:37:34;20.00;99.90
4647;DHT22;2336;47.822;7.564;2022-07-25T04:40:02;20.00;99.90
4647;DHT22;2336;47.822;7.564;2022-07-25T04:42:29;20.00;99.90
4647;DHT22;2336;47.822;7.564;2022-07-25T04:44:57;20.00;99.90
4647;DHT22;2336;47.822;7.564;2022-07-25T04:47:24;20.00;99.90
4647;DHT22;2336;47.822;7.564;2022-07-25T04:49:50;20.10;99.90
4647;DHT22;2336;47.822;7.564;2022-07-25T04:52:17;20.10;99.90
4647;DHT22;2336;47.822;7.564;2022-07-25T04:54:45;20.10;99.90
4647;DHT22;2336;47.822;7.564;2022-07-25T04:57:12;20.10;99.90
4647;DHT22;2336;47.822;7.564;2022-07-25T04:59:38;20.20;99.90
4647;DHT22;2336;47.822;7.564;2022-07-25T05:02:06;20.20;99.90
4647;DHT22;2336;47.822;7.564;2022-07-25T05:04:33;20.20;99.90
4647;DHT22;2336;47.822;7.564;2022-07-25T05:07:00;20.20;99.90
4647;DHT22;2336;47.822;7.564;2022-07-25T05:09:27;20.20;99.90
4647;DHT22;2336;47.822;7.564;2022-07-25T05:11:53;20.30;99.90
4647;DHT22;2336;47.822;7.564;2022-07-25T05:14:20;20.30;99.90
4647;DHT22;2336;47.822;7.564;2022-07-25T05:16:47;20.30;99.90
4647;DHT22;2336;47.822;7.564;2022-07-25T05:19:15;20.40;99.90
4647;DHT22;2336;47.822;7.564;2022-07-25T05:21:42;20.40;99.90
4647;DHT22;2336;47.822;7.564;2022-07-25T05:24:08;20.40;99.90
4647;DHT22;2336;47.822;7.564;2022-07-25T05:26:35;20.50;99.90
4647;DHT22;2336;47.822;7.564;2022-07-25T05:29:02;20.50;99.90
4647;DHT22;2336;47.822;7.564;2022-07-25T05:31:29;20.50;99.90
4647;DHT22;2336;47.822;7.564;2022-07-25T05:33:55;20.60;99.90
4647;DHT22;2336;47.822;7.564;2022-07-25T05:36:23;20.70;99.90
4647;DHT22;2336;47.822;7.564;2022-07-25T05:38:50;20.80;99.90
4647;DHT22;2336;47.822;7.564;2022-07-25T05:41:17;20.90;99.90
4647;DHT22;2336;47.822;7.564;2022-07-25T05:43:43;21.00;99.90
4647;DHT22;2336;47.822;7.564;2022-07-25T05:46:12;21.00;99.90
4647;DHT22;2336;47.822;7.564;2022-07-25T05:48:39;21.20;99.90
4647;DHT22;2336;47.822;7.564;2022-07-25T05:51:06;21.20;99.90
4647;DHT22;2336;47.822;7.564;2022-07-25T05:53:34;21.30;99.90
4647;DHT22;2336;47.822;7.564;2022-07-25T05:56:01;21.40;99.90
4647;DHT22;2336;47.822;7.564;2022-07-25T05:58:28;21.50;99.90
4647;DHT22;2336;47.822;7.564;2022-07-25T06:00:56;21.50;99.90
4647;DHT22;2336;47.822;7.564;2022-07-25T06:03:22;21.60;99.90
4647;DHT22;2336;47.822;7.564;2022-07-25T06:05:49;21.90;99.90
4647;DHT22;2336;47.822;7.564;2022-07-25T06:08:16;22.00;99.90
4647;DHT22;2336;47.822;7.564;2022-07-25T06:10:44;22.10;99.90
4647;DHT22;2336;47.822;7.564;2022-07-25T06:13:11;22.20;99.90
4647;DHT22;2336;47.822;7.564;2022-07-25T06:15:37;22.40;99.90
4647;DHT22;2336;47.822;7.564;2022-07-25T06:18:04;22.50;99.90
4647;DHT22;2336;47.822;7.564;2022-07-25T06:20:31;22.50;99.90
4647;DHT22;2336;47.822;7.564;2022-07-25T06:22:58;22.70;99.90
4647;DHT22;2336;47.822;7.564;2022-07-25T06:25:25;22.80;99.90
4647;DHT22;2336;47.822;7.564;2022-07-25T06:27:53;23.00;99.90
4647;DHT22;2336;47.822;7.564;2022-07-25T06:30:20;23.10;99.90
4647;DHT22;2336;47.822;7.564;2022-07-25T06:32:47;23.30;99.90
4647;DHT22;2336;47.822;7.564;2022-07-25T06:35:14;23.40;99.90
4647;DHT22;2336;47.822;7.564;2022-07-25T06:37:41;23.50;99.90
4647;DHT22;2336;47.822;7.564;2022-07-25T06:40:08;23.60;99.90
4647;DHT22;2336;47.822;7.564;2022-07-25T06:42:37;23.70;99.90
4647;DHT22;2336;47.822;7.564;2022-07-25T06:45:07;23.80;99.90
4647;DHT22;2336;47.822;7.564;2022-07-25T06:47:35;23.90;99.90
4647;DHT22;2336;47.822;7.564;2022-07-25T06:50:02;24.00;99.90
4647;DHT22;2336;47.822;7.564;2022-07-25T06:52:29;24.20;99.90
4647;DHT22;2336;47.822;7.564;2022-07-25T06:54:55;24.30;99.90
4647;DHT22;2336;47.822;7.564;2022-07-25T06:57:22;24.50;99.90
4647;DHT22;2336;47.822;7.564;2022-07-25T06:59:49;24.50;99.90
4647;DHT22;2336;47.822;7.564;2022-07-25T07:02:17;24.70;99.90
4647;DHT22;2336;47.822;7.564;2022-07-25T07:04:44;24.80;99.90
4647;DHT22;2336;47.822;7.564;2022-07-25T07:07:11;25.00;99.90
4647;DHT22;2336;47.822;7.564;2022-07-25T07:09:38;25.10;99.90
4647;DHT22;2336;47.822;7.564;2022-07-25T07:12:05;25.20;99.90
4647;DHT22;2336;47.822;7.564;2022-07-25T07:14:33;25.30;99.90
4647;DHT22;2336;47.822;7.564;2022-07-25T07:16:59;25.50;99.90
4647;DHT22;2336;47.822;7.564;2022-07-25T07:19:27;25.70;99.90
4647;DHT22;2336;47.822;7.564;2022-07-25T07:21:54;25.80;99.90
4647;DHT22;2336;47.822;7.564;2022-07-25T07:24:21;26.00;99.90
4647;DHT22;2336;47.822;7.564;2022-07-25T07:26:48;26.30;99.90
4647;DHT22;2336;47.822;7.564;2022-07-25T07:29:14;26.40;99.90
4647;DHT22;2336;47.822;7.564;2022-07-25T07:31:41;26.60;99.90
4647;DHT22;2336;47.822;7.564;2022-07-25T07:34:08;26.70;99.90
4647;DHT22;2336;47.822;7.564;2022-07-25T07:36:37;26.90;99.90
4647;DHT22;2336;47.822;7.564;2022-07-25T07:39:03;27.20;99.90
4647;DHT22;2336;47.822;7.564;2022-07-25T07:41:30;27.20;99.90
4647;DHT22;2336;47.822;7.564;2022-07-25T07:43:57;27.30;99.90
4647;DHT22;2336;47.822;7.564;2022-07-25T07:46:24;27.40;99.90
4647;DHT22;2336;47.822;7.564;2022-07-25T07:48:50;27.60;99.90
4647;DHT22;2336;47.822;7.564;2022-07-25T07:51:17;27.70;99.90
4647;DHT22;2336;47.822;7.564;2022-07-25T07:53:45;27.80;99.90
4647;DHT22;2336;47.822;7.564;2022-07-25T07:56:29;27.90;99.30
4647;DHT22;2336;47.822;7.564;2022-07-25T07:58:56;28.00;98.90
4647;DHT22;2336;47.822;7.564;2022-07-25T08:01:23;28.10;98.80
4647;DHT22;2336;47.822;7.564;2022-07-25T08:03:51;28.10;97.70
4647;DHT22;2336;47.822;7.564;2022-07-25T08:06:18;28.20;97.70
4647;DHT22;2336;47.822;7.564;2022-07-25T08:08:46;28.30;97.40
4647;DHT22;2336;47.822;7.564;2022-07-25T08:11:12;28.30;96.90
4647;DHT22;2336;47.822;7.564;2022-07-25T08:13:39;28.30;96.90
4647;DHT22;2336;47.822;7.564;2022-07-25T08:16:06;28.40;96.60
4647;DHT22;2336;47.822;7.564;2022-07-25T08:18:36;28.50;96.40
4647;DHT22;2336;47.822;7.564;2022-07-25T08:21:04;28.50;96.10
4647;DHT22;2336;47.822;7.564;2022-07-25T08:23:31;28.60;95.60
4647;DHT22;2336;47.822;7.564;2022-07-25T08:26:00;28.70;95.40
4647;DHT22;2336;47.822;7.564;2022-07-25T08:28:28;28.80;94.90
4647;DHT22;2336;47.822;7.564;2022-07-25T08:30:55;28.80;93.90
4647;DHT22;2336;47.822;7.564;2022-07-25T08:33:23;28.90;93.40
4647;DHT22;2336;47.822;7.564;2022-07-25T08:35:52;29.00;93.60
4647;DHT22;2336;47.822;7.564;2022-07-25T08:38:21;29.10;93.30
4647;DHT22;2336;47.822;7.564;2022-07-25T08:40:48;29.20;93.10
4647;DHT22;2336;47.822;7.564;2022-07-25T08:43:16;29.20;93.00
4647;DHT22;2336;47.822;7.564;2022-07-25T08:45:45;29.30;92.20
4647;DHT22;2336;47.822;7.564;2022-07-25T08:48:12;29.50;92.70
4647;DHT22;2336;47.822;7.564;2022-07-25T08:50:39;29.50;92.20
4647;DHT22;2336;47.822;7.564;2022-07-25T08:53:05;29.50;92.00
4647;DHT22;2336;47.822;7.564;2022-07-25T08:55:32;29.60;91.70
4647;DHT22;2336;47.822;7.564;2022-07-25T08:57:59;29.50;91.70
4647;DHT22;2336;47.822;7.564;2022-07-25T09:00:28;29.60;91.40
4647;DHT22;2336;47.822;7.564;2022-07-25T09:02:56;29.70;91.60
4647;DHT22;2336;47.822;7.564;2022-07-25T09:05:24;29.80;91.20
4647;DHT22;2336;47.822;7.564;2022-07-25T09:07:52;30.00;90.40
4647;DHT22;2336;47.822;7.564;2022-07-25T09:10:21;30.20;90.30
4647;DHT22;2336;47.822;7.564;2022-07-25T09:12:52;30.30;89.10
4647;DHT22;2336;47.822;7.564;2022-07-25T09:15:24;30.30;88.30
4647;DHT22;2336;47.822;7.564;2022-07-25T09:17:52;30.40;87.60
4647;DHT22;2336;47.822;7.564;2022-07-25T09:20:20;30.60;85.70
4647;DHT22;2336;47.822;7.564;2022-07-25T09:22:47;30.60;85.20
4647;DHT22;2336;47.822;7.564;2022-07-25T09:25:22;30.60;84.40
4647;DHT22;2336;47.822;7.564;2022-07-25T09:27:49;30.60;85.00
4647;DHT22;2336;47.822;7.564;2022-07-25T09:30:16;30.70;84.80
4647;DHT22;2336;47.822;7.564;2022-07-25T09:32:43;30.70;83.60
4647;DHT22;2336;47.822;7.564;2022-07-25T09:35:11;30.70;83.50
4647;DHT22;2336;47.822;7.564;2022-07-25T09:37:38;30.80;84.10
4647;DHT22;2336;47.822;7.564;2022-07-25T09:40:12;30.80;83.70
4647;DHT22;2336;47.822;7.564;2022-07-25T09:42:39;31.00;83.60
4647;DHT22;2336;47.822;7.564;2022-07-25T09:45:08;31.10;83.80
4647;DHT22;2336;47.822;7.564;2022-07-25T09:47:47;31.20;82.50
4647;DHT22;2336;47.822;7.564;2022-07-25T09:50:17;31.30;83.30
4647;DHT22;2336;47.822;7.564;2022-07-25T09:52:44;31.40;82.80
4647;DHT22;2336;47.822;7.564;2022-07-25T09:55:12;31.40;82.60
4647;DHT22;2336;47.822;7.564;2022-07-25T09:57:40;31.40;82.80
4647;DHT22;2336;47.822;7.564;2022-07-25T10:00:08;31.60;82.90
4647;DHT22;2336;47.822;7.564;2022-07-25T10:05:37;31.80;82.10
4647;DHT22;2336;47.822;7.564;2022-07-25T10:08:09;31.90;80.70
4647;DHT22;2336;47.822;7.564;2022-07-25T10:10:39;32.10;81.50
4647;DHT22;2336;47.822;7.564;2022-07-25T10:13:09;32.10;81.00
4647;DHT22;2336;47.822;7.564;2022-07-25T10:15:44;32.20;79.70
4647;DHT22;2336;47.822;7.564;2022-07-25T10:18:12;32.30;79.40
4647;DHT22;2336;47.822;7.564;2022-07-25T10:20:41;32.30;80.20
4647;DHT22;2336;47.822;7.564;2022-07-25T10:23:19;32.40;79.30
4647;DHT22;2336;47.822;7.564;2022-07-25T10:25:46;32.30;79.00
4647;DHT22;2336;47.822;7.564;2022-07-25T10:28:18;32.40;79.00
4647;DHT22;2336;47.822;7.564;2022-07-25T10:30:45;32.40;80.20
4647;DHT22;2336;47.822;7.564;2022-07-25T10:33:13;32.50;78.90
4647;DHT22;2336;47.822;7.564;2022-07-25T10:35:42;32.50;78.90
4647;DHT22;2336;47.822;7.564;2022-07-25T10:38:09;32.60;78.80
4647;DHT22;2336;47.822;7.564;2022-07-25T10:40:37;32.70;78.60
4647;DHT22;2336;47.822;7.564;2022-07-25T10:43:10;32.90;77.80
4647;DHT22;2336;47.822;7.564;2022-07-25T10:45:41;33.00;77.40
4647;DHT22;2336;47.822;7.564;2022-07-25T10:48:10;33.20;76.80
4647;DHT22;2336;47.822;7.564;2022-07-25T10:50:50;33.30;76.30
4647;DHT22;2336;47.822;7.564;2022-07-25T10:53:31;33.60;75.40
4647;DHT22;2336;47.822;7.564;2022-07-25T10:56:02;33.60;74.60
4647;DHT22;2336;47.822;7.564;2022-07-25T10:58:50;33.70;74.10
4647;DHT22;2336;47.822;7.564;2022-07-25T11:01:22;33.80;73.80
4647;DHT22;2336;47.822;7.564;2022-07-25T11:03:50;33.90;69.20
4647;DHT22;2336;47.822;7.564;2022-07-25T11:06:29;34.00;69.10
4647;DHT22;2336;47.822;7.564;2022-07-25T11:08:56;34.10;70.20
4647;DHT22;2336;47.822;7.564;2022-07-25T11:11:35;33.90;68.90
4647;DHT22;2336;47.822;7.564;2022-07-25T11:14:03;33.90;69.40
4647;DHT22;2336;47.822;7.564;2022-07-25T11:16:30;33.90;70.20
4647;DHT22;2336;47.822;7.564;2022-07-25T11:18:56;33.70;71.10
4647;DHT22;2336;47.822;7.564;2022-07-25T11:21:24;33.50;71.50
4647;DHT22;2336;47.822;7.564;2022-07-25T11:23:51;33.70;71.60
4647;DHT22;2336;47.822;7.564;2022-07-25T11:26:18;33.80;71.30
4647;DHT22;2336;47.822;7.564;2022-07-25T11:28:47;34.00;69.80
4647;DHT22;2336;47.822;7.564;2022-07-25T11:31:15;33.80;68.90
4647;DHT22;2336;47.822;7.564;2022-07-25T11:33:45;33.40;68.70
4647;DHT22;2336;47.822;7.564;2022-07-25T11:36:13;33.50;70.30
4647;DHT22;2336;47.822;7.564;2022-07-25T11:38:41;33.50;69.00
4647;DHT22;2336;47.822;7.564;2022-07-25T11:41:12;33.70;69.00
4647;DHT22;2336;47.822;7.564;2022-07-25T11:43:47;33.70;67.70
4647;DHT22;2336;47.822;7.564;2022-07-25T11:46:14;33.70;68.70
4647;DHT22;2336;47.822;7.564;2022-07-25T11:48:42;33.80;69.60
4647;DHT22;2336;47.822;7.564;2022-07-25T11:51:12;34.00;69.60
4647;DHT22;2336;47.822;7.564;2022-07-25T11:53:42;34.10;69.40
4647;DHT22;2336;47.822;7.564;2022-07-25T11:56:14;34.10;69.20
4647;DHT22;2336;47.822;7.564;2022-07-25T11:58:41;34.00;69.00
4647;DHT22;2336;47.822;7.564;2022-07-25T12:01:13;33.90;68.00
4647;DHT22;2336;47.822;7.564;2022-07-25T12:03:41;33.70;67.70
4647;DHT22;2336;47.822;7.564;2022-07-25T12:06:10;33.70;68.80
4647;DHT22;2336;47.822;7.564;2022-07-25T12:08:39;33.90;68.80
4647;DHT22;2336;47.822;7.564;2022-07-25T12:11:18;34.10;68.20
4647;DHT22;2336;47.822;7.564;2022-07-25T12:13:46;33.90;67.60
4647;DHT22;2336;47.822;7.564;2022-07-25T12:16:12;34.00;68.80
4647;DHT22;2336;47.822;7.564;2022-07-25T12:18:39;33.80;68.70
4647;DHT22;2336;47.822;7.564;2022-07-25T12:21:06;33.70;67.30
4647;DHT22;2336;47.822;7.564;2022-07-25T12:23:33;33.80;67.50
4647;DHT22;2336;47.822;7.564;2022-07-25T12:26:00;33.90;67.00
4647;DHT22;2336;47.822;7.564;2022-07-25T12:28:28;34.00;66.20
4647;DHT22;2336;47.822;7.564;2022-07-25T12:30:55;34.00;65.50
4647;DHT22;2336;47.822;7.564;2022-07-25T12:33:22;33.90;66.10
4647;DHT22;2336;47.822;7.564;2022-07-25T12:35:49;33.90;64.90
4647;DHT22;2336;47.822;7.564;2022-07-25T12:38:16;34.00;64.50
4647;DHT22;2336;47.822;7.564;2022-07-25T12:40:43;34.00;64.30
4647;DHT22;2336;47.822;7.564;2022-07-25T12:43:09;33.90;64.90
4647;DHT22;2336;47.822;7.564;2022-07-25T12:45:38;33.90;64.00
4647;DHT22;2336;47.822;7.564;2022-07-25T12:48:06;33.90;62.90
4647;DHT22;2336;47.822;7.564;2022-07-25T12:50:33;34.00;62.50
4647;DHT22;2336;47.822;7.564;2022-07-25T12:53:01;34.10;61.90
4647;DHT22;2336;47.822;7.564;2022-07-25T12:55:28;34.10;61.90
4647;DHT22;2336;47.822;7.564;2022-07-25T12:57:55;34.10;62.50
4647;DHT22;2336;47.822;7.564;2022-07-25T13:00:23;34.20;63.00
4647;DHT22;2336;47.822;7.564;2022-07-25T13:02:52;34.10;62.40
4647;DHT22;2336;47.822;7.564;2022-07-25T13:05:20;34.00;60.50
4647;DHT22;2336;47.822;7.564;2022-07-25T13:07:48;34.00;62.00
4647;DHT22;2336;47.822;7.564;2022-07-25T13:10:16;33.90;60.40
4647;DHT22;2336;47.822;7.564;2022-07-25T13:12:44;33.90;60.30
4647;DHT22;2336;47.822;7.564;2022-07-25T13:15:11;33.90;60.70
4647;DHT22;2336;47.822;7.564;2022-07-25T13:17:39;33.70;60.40
4647;DHT22;2336;47.822;7.564;2022-07-25T13:20:09;33.70;60.10
4647;DHT22;2336;47.822;7.564;2022-07-25T13:22:37;33.80;60.80
4647;DHT22;2336;47.822;7.564;2022-07-25T13:25:04;34.10;60.10
4647;DHT22;2336;47.822;7.564;2022-07-25T13:27:31;34.20;58.90
4647;DHT22;2336;47.822;7.564;2022-07-25T13:29:58;34.10;58.90
4647;DHT22;2336;47.822;7.564;2022-07-25T13:32:25;34.10;58.70
4647;DHT22;2336;47.822;7.564;2022-07-25T13:34:52;34.10;59.20
4647;DHT22;2336;47.822;7.564;2022-07-25T13:37:21;34.00;59.20
4647;DHT22;2336;47.822;7.564;2022-07-25T13:39:48;34.00;59.60
4647;DHT22;2336;47.822;7.564;2022-07-25T13:42:14;34.10;59.80
4647;DHT22;2336;47.822;7.564;2022-07-25T13:44:41;34.30;58.40
4647;DHT22;2336;47.822;7.564;2022-07-25T13:47:08;34.30;58.90
4647;DHT22;2336;47.822;7.564;2022-07-25T13:49:35;34.50;58.70
4647;DHT22;2336;47.822;7.564;2022-07-25T13:52:02;34.70;60.10
4647;DHT22;2336;47.822;7.564;2022-07-25T13:54:31;35.00;61.20
4647;DHT22;2336;47.822;7.564;2022-07-25T13:56:57;35.10;62.60
4647;DHT22;2336;47.822;7.564;2022-07-25T13:59:24;35.10;62.70
4647;DHT22;2336;47.822;7.564;2022-07-25T14:01:51;35.20;62.90
4647;DHT22;2336;47.822;7.564;2022-07-25T14:04:18;35.00;62.10
4647;DHT22;2336;47.822;7.564;2022-07-25T14:06:44;35.10;62.80
4647;DHT22;2336;47.822;7.564;2022-07-25T14:09:16;35.20;63.20
4647;DHT22;2336;47.822;7.564;2022-07-25T14:11:44;35.20;62.90
4647;DHT22;2336;47.822;7.564;2022-07-25T14:14:11;35.10;63.10
4647;DHT22;2336;47.822;7.564;2022-07-25T14:16:38;35.00;62.60
4647;DHT22;2336;47.822;7.564;2022-07-25T14:19:04;34.70;63.10
4647;DHT22;2336;47.822;7.564;2022-07-25T14:21:31;34.60;62.50
4647;DHT22;2336;47.822;7.564;2022-07-25T14:23:58;34.60;62.70
4647;DHT22;2336;47.822;7.564;2022-07-25T14:26:25;34.80;62.70
4647;DHT22;2336;47.822;7.564;2022-07-25T14:28:55;34.80;62.60
4647;DHT22;2336;47.822;7.564;2022-07-25T14:31:22;34.90;63.20
4647;DHT22;2336;47.822;7.564;2022-07-25T14:33:49;34.70;61.70
4647;DHT22;2336;47.822;7.564;2022-07-25T14:36:16;34.70;61.90
4647;DHT22;2336;47.822;7.564;2022-07-25T14:38:42;34.90;63.60
4647;DHT22;2336;47.822;7.564;2022-07-25T14:41:11;35.10;61.40
4647;DHT22;2336;47.822;7.564;2022-07-25T14:43:38;35.10;59.60
4647;DHT22;2336;47.822;7.564;2022-07-25T14:46:07;34.90;59.90
4647;DHT22;2336;47.822;7.564;2022-07-25T14:48:34;34.90;60.90
4647;DHT22;2336;47.822;7.564;2022-07-25T14:51:02;34.90;61.10
4647;DHT22;2336;47.822;7.564;2022-07-25T14:53:29;34.80;61.60
4647;DHT22;2336;47.822;7.564;2022-07-25T14:55:56;34.90;62.90
4647;DHT22;2336;47.822;7.564;2022-07-25T14:58:23;34.70;61.80
4647;DHT22;2336;47.822;7.564;2022-07-25T15:00:50;34.40;62.00
4647;DHT22;2336;47.822;7.564;2022-07-25T15:03:18;34.10;62.60
4647;DHT22;2336;47.822;7.564;2022-07-25T15:05:45;34.20;62.30
4647;DHT22;2336;47.822;7.564;2022-07-25T15:08:12;34.30;62.80
4647;DHT22;2336;47.822;7.564;2022-07-25T15:10:39;34.20;62.60
4647;DHT22;2336;47.822;7.564;2022-07-25T15:13:05;33.90;62.60
4647;DHT22;2336;47.822;7.564;2022-07-25T15:15:32;34.00;63.40
4647;DHT22;2336;47.822;7.564;2022-07-25T15:18:00;34.00;63.50
4647;DHT22;2336;47.822;7.564;2022-07-25T15:20:28;34.00;64.20
4647;DHT22;2336;47.822;7.564;2022-07-25T15:22:55;34.10;63.70
4647;DHT22;2336;47.822;7.564;2022-07-25T15:25:21;33.80;63.30
4647;DHT22;2336;47.822;7.564;2022-07-25T15:27:48;33.80;64.10
4647;DHT22;2336;47.822;7.564;2022-07-25T15:30:15;33.80;64.10
4647;DHT22;2336;47.822;7.564;2022-07-25T15:32:42;33.90;64.30
4647;DHT22;2336;47.822;7.564;2022-07-25T15:35:10;34.00;64.20
4647;DHT22;2336;47.822;7.564;2022-07-25T15:37:38;33.90;62.90
4647;DHT22;2336;47.822;7.564;2022-07-25T15:40:06;34.10;63.60
4647;DHT22;2336;47.822;7.564;2022-07-25T15:42:33;33.90;61.40
4647;DHT22;2336;47.822;7.564;2022-07-25T15:45:00;33.80;61.40
4647;DHT22;2336;47.822;7.564;2022-07-25T15:47:26;33.60;61.70
4647;DHT22;2336;47.822;7.564;2022-07-25T15:49:53;33.70;61.40
4647;DHT22;2336;47.822;7.564;2022-07-25T15:52:20;33.70;59.80
4647;DHT22;2336;47.822;7.564;2022-07-25T15:54:50;33.60;59.90
4647;DHT22;2336;47.822;7.564;2022-07-25T15:57:17;33.70;59.80
4647;DHT22;2336;47.822;7.564;2022-07-25T15:59:44;33.60;58.40
4647;DHT22;2336;47.822;7.564;2022-07-25T16:02:10;33.60;58.30
4647;DHT22;2336;47.822;7.564;2022-07-25T16:04:38;33.60;57.10
4647;DHT22;2336;47.822;7.564;2022-07-25T16:07:05;33.40;56.70